Time;durP1;ratioP1;P1;durP2;ratioP2;P2;SDS_P1;SDS_P2;PMS_P1;PMS_P2;Temp;Humidity;BMP_temperature;BMP_pressure;BME280_temperature;BME280_humidity;BME280_pressure;Samples;Min_cycle;Max_cycle;Signal;HPM_P1;HPM_P2
2022/05/21 00:00:24;;;;;;;5.50;2.10;;;16.80;99.90;;;;;;5006330;28;20528;-66
2022/05/21 00:02:50;;;;;;;5.27;2.30;;;16.70;99.90;;;;;;5006131;28;20190;-66
2022/05/21 00:05:17;;;;;;;8.40;3.20;;;16.70;99.90;;;;;;5006576;28;20531;-67
2022/05/21 00:07:44;;;;;;;9.33;1.80;;;16.70;99.90;;;;;;5006504;28;20893;-66
2022/05/21 00:10:14;;;;;;;2.10;1.30;;;16.70;99.90;;;;;;5006377;28;20498;-66
2022/05/21 00:12:41;;;;;;;1.80;1.10;;;16.70;99.90;;;;;;5006523;28;20426;-66
2022/05/21 00:15:07;;;;;;;2.90;1.33;;;16.80;99.90;;;;;;5006197;28;20458;-67
2022/05/21 00:17:33;;;;;;;2.20;1.03;;;16.70;99.90;;;;;;5006850;28;20686;-67
2022/05/21 00:20:00;;;;;;;3.73;1.03;;;16.70;99.90;;;;;;5009008;28;20527;-66
2022/05/21 00:22:26;;;;;;;4.10;1.33;;;16.70;99.90;;;;;;5004403;28;20183;-66
2022/05/21 00:24:52;;;;;;;1.60;0.90;;;16.70;99.90;;;;;;5003383;28;20425;-66
2022/05/21 00:27:18;;;;;;;4.67;2.00;;;16.70;99.90;;;;;;5006266;28;20438;-67
2022/05/21 00:29:44;;;;;;;2.90;1.53;;;16.60;99.90;;;;;;5006364;28;20187;-66
2022/05/21 00:32:10;;;;;;;2.07;1.10;;;16.60;99.90;;;;;;5006316;28;20229;-66
2022/05/21 00:34:36;;;;;;;2.40;1.20;;;16.50;99.90;;;;;;5004048;28;20468;-66
2022/05/21 00:37:02;;;;;;;7.10;1.00;;;16.40;99.90;;;;;;5003353;28;20449;-66
2022/05/21 00:39:28;;;;;;;4.23;1.47;;;16.40;99.90;;;;;;4993515;28;20829;-66
2022/05/21 00:41:54;;;;;;;3.50;1.27;;;16.40;99.90;;;;;;4997128;28;20431;-66
2022/05/21 00:44:20;;;;;;;2.40;1.20;;;16.40;99.90;;;;;;5000470;28;20389;-67
2022/05/21 00:46:47;;;;;;;2.57;1.23;;;16.30;99.90;;;;;;4990593;28;20229;-66
2022/05/21 00:49:17;;;;;;;2.00;1.20;;;16.20;99.90;;;;;;4997928;28;20442;-66
2022/05/21 00:51:45;;;;;;;2.07;0.93;;;16.20;99.90;;;;;;4997357;28;20450;-66
2022/05/21 00:54:12;;;;;;;3.03;1.07;;;16.10;99.90;;;;;;4998083;28;20505;-66
2022/05/21 00:56:59;;;;;;;1.80;1.00;;;16.10;99.90;;;;;;5006051;28;20505;-66
2022/05/21 01:02:11;;;;;;;3.97;1.20;;;16.00;99.90;;;;;;5003868;28;20432;-66
2022/05/21 01:04:38;;;;;;;3.13;1.10;;;15.90;99.90;;;;;;5005979;28;20430;-67
2022/05/21 01:07:06;;;;;;;3.60;1.00;;;15.90;99.90;;;;;;5005641;28;20410;-66
2022/05/21 01:09:33;;;;;;;2.80;1.10;;;15.90;99.90;;;;;;5006448;28;20879;-66
2022/05/21 01:12:02;;;;;;;3.77;1.07;;;15.80;99.90;;;;;;5001171;28;20537;-67
2022/05/21 01:14:29;;;;;;;3.00;1.10;;;15.70;99.90;;;;;;5008366;28;20434;-66
2022/05/21 01:16:55;;;;;;;2.20;1.10;;;15.70;99.90;;;;;;5008992;28;20863;-66
2022/05/21 01:19:21;;;;;;;1.90;0.80;;;15.60;99.90;;;;;;5009800;28;20473;-66
2022/05/21 01:21:47;;;;;;;1.60;0.70;;;15.60;99.90;;;;;;5007234;28;20179;-66
2022/05/21 01:24:13;;;;;;;3.43;1.00;;;15.60;99.90;;;;;;5005628;28;20666;-66
2022/05/21 01:26:40;;;;;;;2.53;1.10;;;15.60;99.90;;;;;;5005540;28;20644;-66
2022/05/21 01:29:17;;;;;;;1.50;0.80;;;15.50;99.90;;;;;;5007009;28;20563;-66
2022/05/21 01:31:51;;;;;;;2.63;0.90;;;15.50;99.50;;;;;;5003575;28;20461;-66
2022/05/21 01:34:20;;;;;;;1.97;0.70;;;15.50;99.90;;;;;;5009669;28;20787;-66
2022/05/21 01:36:46;;;;;;;1.80;1.03;;;15.50;99.80;;;;;;5006861;28;20438;-66
2022/05/21 01:39:13;;;;;;;3.07;0.97;;;15.50;99.90;;;;;;5009197;28;20493;-66
2022/05/21 01:41:43;;;;;;;4.90;1.17;;;15.50;99.90;;;;;;5009286;28;20418;-66
2022/05/21 01:46:53;;;;;;;2.70;1.03;;;15.40;99.90;;;;;;5008718;28;20483;-66
2022/05/21 01:49:19;;;;;;;3.00;1.27;;;15.30;99.90;;;;;;5008767;28;20857;-66
2022/05/21 01:51:44;;;;;;;2.13;1.10;;;15.30;99.90;;;;;;5009154;28;20191;-66
2022/05/21 01:54:10;;;;;;;3.40;0.80;;;15.30;99.90;;;;;;5009064;28;20241;-66
2022/05/21 01:56:36;;;;;;;3.50;1.40;;;15.20;99.90;;;;;;5003689;28;20762;-66
2022/05/21 01:59:01;;;;;;;1.47;0.83;;;15.20;99.90;;;;;;5009256;28;20283;-66
2022/05/21 02:01:27;;;;;;;1.90;1.00;;;15.30;99.90;;;;;;5008670;28;20234;-66
2022/05/21 02:03:53;;;;;;;4.90;1.10;;;15.10;99.90;;;;;;5008871;28;20210;-66
2022/05/21 02:06:18;;;;;;;1.80;1.00;;;15.00;99.90;;;;;;5004017;28;20448;-66
2022/05/21 02:08:44;;;;;;;3.00;1.10;;;14.90;99.90;;;;;;5008423;28;20183;-66
2022/05/21 02:11:10;;;;;;;2.60;1.00;;;14.90;99.90;;;;;;5008425;28;20223;-66
2022/05/21 02:13:35;;;;;;;2.80;1.03;;;14.80;99.90;;;;;;5008801;28;20240;-66
2022/05/21 02:16:02;;;;;;;3.67;1.13;;;14.80;99.90;;;;;;5008334;28;20190;-65
2022/05/21 02:18:28;;;;;;;3.27;1.70;;;14.80;99.90;;;;;;5007968;28;20217;-66
2022/05/21 02:20:54;;;;;;;2.53;1.17;;;14.60;99.90;;;;;;5010459;28;20458;-66
2022/05/21 02:23:21;;;;;;;1.93;1.00;;;14.60;99.90;;;;;;5008543;28;20446;-69
2022/05/21 02:25:46;;;;;;;3.60;1.20;;;14.40;99.90;;;;;;5007433;28;20434;-66
2022/05/21 02:28:13;;;;;;;2.50;1.30;;;14.30;99.90;;;;;;5008338;28;20426;-66
2022/05/21 02:30:39;;;;;;;2.20;0.90;;;14.20;99.90;;;;;;5007235;28;20194;-66
2022/05/21 02:33:04;;;;;;;2.80;1.20;;;14.10;99.90;;;;;;5008273;28;20544;-66
2022/05/21 02:35:30;;;;;;;2.33;1.23;;;14.10;99.90;;;;;;5008079;28;20454;-66
2022/05/21 02:40:40;;;;;;;1.70;1.00;;;14.10;99.90;;;;;;5002540;28;20202;-66
2022/05/21 02:43:06;;;;;;;3.20;1.00;;;14.10;99.90;;;;;;5008252;28;20429;-66
2022/05/21 02:45:32;;;;;;;2.93;1.23;;;14.00;99.90;;;;;;5007851;28;20234;-67
2022/05/21 02:47:58;;;;;;;3.50;1.40;;;14.00;99.90;;;;;;5007615;28;20202;-66
2022/05/21 02:50:30;;;;;;;2.23;1.00;;;14.00;99.90;;;;;;5003059;28;20440;-66
2022/05/21 02:52:56;;;;;;;2.43;1.33;;;14.00;99.90;;;;;;5004907;28;20423;-66
2022/05/21 02:55:22;;;;;;;2.33;1.33;;;13.90;99.90;;;;;;5007846;28;20434;-66
2022/05/21 02:57:48;;;;;;;3.00;1.13;;;13.90;99.90;;;;;;5007685;28;20183;-66
2022/05/21 03:00:28;;;;;;;3.03;1.77;;;13.90;99.90;;;;;;5007166;28;20344;-66
2022/05/21 03:02:55;;;;;;;4.30;1.63;;;13.90;99.90;;;;;;5007737;28;20183;-67
2022/05/21 03:05:21;;;;;;;2.47;1.10;;;13.90;99.90;;;;;;5007331;28;20465;-66
2022/05/21 03:07:50;;;;;;;2.60;1.40;;;13.80;99.90;;;;;;5007481;28;20509;-66
2022/05/21 03:10:21;;;;;;;3.63;1.67;;;13.80;99.90;;;;;;5007626;28;20660;-66
2022/05/21 03:12:51;;;;;;;2.27;1.20;;;13.80;99.90;;;;;;5007294;28;20430;-66
2022/05/21 03:15:17;;;;;;;2.00;1.10;;;13.80;99.90;;;;;;5007298;28;20422;-66
2022/05/21 03:17:44;;;;;;;2.70;1.40;;;13.70;99.90;;;;;;5007366;28;20903;-66
2022/05/21 03:20:13;;;;;;;2.37;1.23;;;13.70;99.90;;;;;;5009382;28;20586;-65
2022/05/21 03:22:42;;;;;;;2.80;1.40;;;13.60;99.90;;;;;;5002086;28;20521;-66
2022/05/21 03:25:09;;;;;;;2.77;1.63;;;13.60;99.90;;;;;;5007870;28;21054;-66
2022/05/21 03:27:35;;;;;;;2.03;1.10;;;13.60;99.90;;;;;;5007687;28;20924;-66
2022/05/21 03:30:03;;;;;;;5.10;1.60;;;13.60;99.90;;;;;;5007225;28;20453;-66
2022/05/21 03:32:29;;;;;;;3.50;1.53;;;13.60;99.90;;;;;;5007065;28;20662;-66
2022/05/21 03:34:54;;;;;;;3.63;1.70;;;13.60;99.90;;;;;;5004971;28;20769;-66
2022/05/21 03:37:20;;;;;;;3.30;1.57;;;13.50;99.90;;;;;;5006728;28;20648;-66
2022/05/21 03:39:46;;;;;;;4.77;1.50;;;13.50;99.90;;;;;;5007172;28;20211;-66
2022/05/21 03:42:11;;;;;;;1.90;1.17;;;13.40;99.90;;;;;;5006595;28;20183;-66
2022/05/21 03:44:37;;;;;;;3.00;1.57;;;13.40;99.90;;;;;;5007455;28;20221;-66
2022/05/21 03:47:03;;;;;;;2.23;1.17;;;13.30;99.90;;;;;;5006239;28;20189;-66
2022/05/21 03:49:29;;;;;;;4.17;1.40;;;13.30;99.90;;;;;;5006937;28;20191;-66
2022/05/21 03:51:54;;;;;;;3.17;1.53;;;13.30;99.90;;;;;;5006912;28;20459;-66
2022/05/21 03:54:21;;;;;;;3.40;1.13;;;13.30;99.90;;;;;;5006572;28;20555;-66
2022/05/21 03:56:47;;;;;;;2.27;1.00;;;13.10;99.90;;;;;;5006670;28;20578;-66
2022/05/21 03:59:12;;;;;;;2.20;1.17;;;13.10;99.90;;;;;;5002282;28;20471;-66
2022/05/21 04:01:40;;;;;;;3.00;1.13;;;13.00;99.90;;;;;;5000183;28;20266;-67
2022/05/21 04:04:05;;;;;;;3.97;1.20;;;13.00;99.90;;;;;;5006928;28;20526;-66
2022/05/21 04:06:31;;;;;;;2.73;1.33;;;13.00;99.90;;;;;;5007037;28;20485;-66
2022/05/21 04:08:57;;;;;;;2.40;0.90;;;13.00;99.90;;;;;;5006613;28;20281;-66
2022/05/21 04:11:22;;;;;;;2.07;1.00;;;13.00;99.90;;;;;;5006087;28;20187;-66
2022/05/21 04:13:48;;;;;;;4.83;1.87;;;13.00;99.90;;;;;;5002415;28;20293;-66
2022/05/21 04:16:14;;;;;;;3.20;1.57;;;12.90;99.90;;;;;;5005984;28;20194;-67
2022/05/21 04:18:39;;;;;;;2.90;1.43;;;12.90;99.90;;;;;;5006158;28;20203;-66
2022/05/21 04:21:05;;;;;;;2.13;1.17;;;12.90;99.90;;;;;;5007799;28;20664;-66
2022/05/21 04:23:30;;;;;;;2.17;1.23;;;13.00;99.90;;;;;;5002497;28;20581;-66
2022/05/21 04:25:56;;;;;;;1.77;1.00;;;13.00;99.90;;;;;;5006915;28;20183;-65
2022/05/21 04:28:22;;;;;;;2.93;1.57;;;13.00;99.90;;;;;;5006393;28;20196;-66
2022/05/21 04:30:47;;;;;;;1.90;1.10;;;13.00;99.90;;;;;;5006539;28;20266;-65
2022/05/21 04:33:13;;;;;;;2.80;1.27;;;13.00;99.90;;;;;;5006207;28;20584;-66
2022/05/21 04:38:23;;;;;;;4.37;1.70;;;13.00;99.90;;;;;;5005767;28;20237;-66
2022/05/21 04:40:48;;;;;;;2.30;1.23;;;13.00;99.90;;;;;;5006258;28;20422;-65
2022/05/21 04:43:14;;;;;;;3.37;1.50;;;12.90;99.90;;;;;;5006401;28;20183;-66
2022/05/21 04:45:40;;;;;;;2.37;1.37;;;12.90;99.90;;;;;;5005725;28;20248;-66
2022/05/21 04:48:07;;;;;;;6.17;1.80;;;12.80;99.90;;;;;;5005753;28;20551;-67
2022/05/21 04:50:37;;;;;;;2.37;1.30;;;12.90;99.90;;;;;;5004568;28;20428;-66
2022/05/21 04:53:03;;;;;;;2.23;1.27;;;12.80;99.90;;;;;;5008682;28;20794;-66
2022/05/21 04:55:29;;;;;;;2.33;1.20;;;12.90;99.90;;;;;;5001438;28;20437;-67
2022/05/21 04:57:54;;;;;;;4.53;1.83;;;12.80;99.90;;;;;;5007620;28;20233;-66
2022/05/21 05:00:20;;;;;;;5.50;1.73;;;12.90;99.90;;;;;;5009403;28;20206;-66
2022/05/21 05:02:46;;;;;;;3.40;1.53;;;13.00;99.90;;;;;;5008037;28;20333;-66
2022/05/21 05:05:15;;;;;;;2.43;1.47;;;13.10;99.90;;;;;;5007533;28;20194;-66
2022/05/21 05:07:41;;;;;;;2.57;1.27;;;13.20;99.90;;;;;;5004067;28;20302;-66
2022/05/21 05:10:07;;;;;;;3.70;1.53;;;13.20;99.90;;;;;;5003961;28;20434;-67
2022/05/21 05:12:33;;;;;;;10.70;1.83;;;13.30;99.90;;;;;;5006925;28;20886;-68
2022/05/21 05:15:00;;;;;;;3.07;1.53;;;13.30;99.90;;;;;;5006299;28;20550;-67
2022/05/21 05:17:27;;;;;;;2.40;1.10;;;13.40;99.90;;;;;;5007590;28;20195;-67
2022/05/21 05:19:55;;;;;;;5.10;1.23;;;13.40;99.90;;;;;;5007104;28;20478;-67
2022/05/21 05:22:22;;;;;;;4.13;1.30;;;13.50;99.90;;;;;;5006081;28;20432;-67
2022/05/21 05:24:49;;;;;;;4.60;1.80;;;13.60;99.90;;;;;;5006611;28;20517;-67
2022/05/21 05:27:15;;;;;;;5.07;1.80;;;13.60;99.90;;;;;;5011033;28;20449;-67
2022/05/21 05:29:41;;;;;;;2.47;1.10;;;13.70;99.90;;;;;;5008387;28;20926;-67
2022/05/21 05:32:07;;;;;;;2.80;1.40;;;13.80;99.90;;;;;;5003928;28;20436;-68
2022/05/21 05:34:34;;;;;;;3.30;1.40;;;13.80;99.90;;;;;;5011239;28;20194;-67
2022/05/21 05:37:00;;;;;;;3.30;1.40;;;13.90;99.90;;;;;;5009726;28;20430;-67
2022/05/21 05:39:26;;;;;;;2.47;1.43;;;13.90;99.90;;;;;;5002002;28;20474;-68
2022/05/21 05:41:52;;;;;;;2.23;1.33;;;14.00;99.90;;;;;;5002578;28;20427;-66
2022/05/21 05:44:20;;;;;;;2.37;1.23;;;14.00;99.90;;;;;;5007654;28;20306;-67
2022/05/21 05:46:46;;;;;;;2.73;1.33;;;14.10;99.50;;;;;;5003594;28;20441;-67
2022/05/21 05:49:11;;;;;;;3.63;1.00;;;14.10;99.30;;;;;;4997544;28;20433;-67
2022/05/21 05:51:37;;;;;;;3.37;1.90;;;14.20;99.20;;;;;;5000984;28;20226;-67
2022/05/21 05:54:03;;;;;;;1.80;0.90;;;14.20;98.90;;;;;;5003830;28;20187;-67
2022/05/21 05:56:29;;;;;;;3.50;1.30;;;14.20;98.60;;;;;;4996149;28;20192;-67
2022/05/21 06:01:38;;;;;;;3.20;1.33;;;14.20;98.70;;;;;;5004674;28;20334;-67
2022/05/21 06:04:04;;;;;;;2.37;1.10;;;14.30;98.70;;;;;;4999252;28;20811;-67
2022/05/21 06:06:31;;;;;;;3.03;1.40;;;14.30;98.50;;;;;;5002840;28;20336;-67
2022/05/21 06:08:57;;;;;;;2.27;1.30;;;14.40;98.60;;;;;;4999313;28;20183;-67
2022/05/21 06:11:23;;;;;;;2.40;0.97;;;14.40;98.40;;;;;;4996309;28;20809;-67
2022/05/21 06:13:49;;;;;;;5.27;1.17;;;14.50;98.30;;;;;;4998778;28;20195;-67
2022/05/21 06:16:15;;;;;;;1.50;0.73;;;14.50;98.30;;;;;;5000595;28;20431;-67
2022/05/21 06:18:42;;;;;;;5.20;1.57;;;14.60;97.40;;;;;;4999621;28;20206;-67
2022/05/21 06:21:09;;;;;;;2.23;1.07;;;14.60;96.90;;;;;;5008624;28;20585;-67
2022/05/21 06:23:35;;;;;;;2.20;1.10;;;14.60;97.40;;;;;;5008187;28;20447;-67
2022/05/21 06:26:01;;;;;;;1.80;0.80;;;14.70;95.90;;;;;;5008756;28;20418;-67
2022/05/21 06:28:28;;;;;;;2.07;0.80;;;14.80;96.50;;;;;;5008351;28;20456;-67
2022/05/21 06:30:54;;;;;;;2.10;1.10;;;14.90;95.80;;;;;;5008680;28;20894;-67
2022/05/21 06:33:29;;;;;;;1.97;0.93;;;14.90;95.20;;;;;;5008286;28;20838;-67
2022/05/21 06:36:14;;;;;;;4.00;1.03;;;14.90;95.00;;;;;;5008293;28;20186;-67
2022/05/21 06:38:41;;;;;;;1.47;0.63;;;15.00;95.20;;;;;;5008186;28;20949;-67
2022/05/21 06:41:07;;;;;;;1.70;0.67;;;15.00;95.10;;;;;;5007906;28;20501;-68
2022/05/21 06:43:33;;;;;;;3.30;1.00;;;15.10;94.90;;;;;;5007932;28;20418;-68
2022/05/21 06:45:59;;;;;;;1.97;0.73;;;15.20;95.00;;;;;;5007671;28;20779;-67
2022/05/21 06:48:25;;;;;;;2.73;1.03;;;15.30;95.10;;;;;;5008350;28;20548;-67
2022/05/21 06:50:51;;;;;;;1.77;0.73;;;15.40;94.20;;;;;;5008253;28;20187;-67
2022/05/21 06:53:16;;;;;;;1.50;0.50;;;15.50;95.00;;;;;;5006715;28;20187;-67
2022/05/21 06:55:42;;;;;;;1.80;0.80;;;15.80;94.00;;;;;;5008194;28;20187;-68
2022/05/21 06:58:08;;;;;;;2.57;0.90;;;16.00;93.00;;;;;;5007789;28;20187;-68
2022/05/21 07:00:34;;;;;;;2.07;0.90;;;16.20;93.20;;;;;;5007745;28;20268;-68
2022/05/21 07:03:00;;;;;;;2.33;0.80;;;16.20;92.90;;;;;;5007955;28;20978;-68
2022/05/21 07:08:19;;;;;;;2.80;0.90;;;16.50;92.80;;;;;;5007601;28;20277;-67
2022/05/21 07:10:46;;;;;;;2.47;1.00;;;16.50;92.80;;;;;;5006993;28;20433;-68
2022/05/21 07:13:12;;;;;;;10.93;0.80;;;16.70;92.90;;;;;;5007314;28;20556;-67
2022/05/21 07:15:38;;;;;;;2.27;0.80;;;16.80;91.80;;;;;;5007602;28;20433;-68
2022/05/21 07:18:04;;;;;;;1.57;0.73;;;17.10;91.00;;;;;;5007445;28;20430;-66
2022/05/21 07:20:30;;;;;;;1.97;0.70;;;17.30;90.90;;;;;;5007855;28;20221;-66
2022/05/21 07:22:56;;;;;;;1.73;0.87;;;17.70;90.10;;;;;;5007723;28;20218;-67
2022/05/21 07:25:27;;;;;;;1.53;0.67;;;17.90;90.00;;;;;;5007715;28;20182;-66
2022/05/21 07:27:53;;;;;;;2.53;0.80;;;18.10;88.60;;;;;;5007801;28;20418;-67
2022/05/21 07:30:19;;;;;;;2.83;1.00;;;18.30;88.80;;;;;;5007300;28;20418;-66
2022/05/21 07:32:45;;;;;;;1.50;0.70;;;18.80;85.90;;;;;;5007399;28;20238;-67
2022/05/21 07:35:13;;;;;;;1.77;0.53;;;19.40;84.10;;;;;;5007532;28;20418;-67
2022/05/21 07:37:40;;;;;;;5.80;0.80;;;20.60;80.60;;;;;;5007326;28;20497;-67
2022/05/21 07:40:08;;;;;;;2.27;0.70;;;20.80;77.00;;;;;;5006757;28;20820;-67
2022/05/21 07:42:33;;;;;;;2.60;0.70;;;21.50;74.20;;;;;;5007232;28;20418;-67
2022/05/21 07:44:59;;;;;;;1.60;0.60;;;21.70;71.90;;;;;;5006896;28;20474;-67
2022/05/21 07:47:25;;;;;;;1.63;0.70;;;21.70;74.20;;;;;;5007128;28;20599;-67
2022/05/21 07:49:54;;;;;;;1.57;0.60;;;22.00;73.40;;;;;;5013518;28;20937;-67
2022/05/21 07:52:21;;;;;;;1.60;0.80;;;22.40;73.00;;;;;;5007231;28;20203;-67
2022/05/21 07:54:47;;;;;;;4.13;0.73;;;23.90;68.10;;;;;;5006441;28;20483;-68
2022/05/21 07:57:12;;;;;;;1.90;0.70;;;23.70;67.20;;;;;;5006775;28;20643;-67
2022/05/21 07:59:38;;;;;;;1.70;0.50;;;23.70;66.00;;;;;;5007257;28;20233;-67
2022/05/21 08:02:05;;;;;;;1.70;0.70;;;23.50;65.90;;;;;;5006552;28;20683;-68
2022/05/21 08:04:31;;;;;;;5.60;1.03;;;23.40;67.80;;;;;;5009403;28;20277;-67
2022/05/21 08:06:57;;;;;;;1.50;0.60;;;23.90;64.00;;;;;;5009878;28;20269;-67
2022/05/21 08:09:23;;;;;;;2.77;0.73;;;23.80;64.50;;;;;;5006601;28;20336;-67
2022/05/21 08:11:49;;;;;;;1.40;0.50;;;23.30;66.20;;;;;;5006575;28;20275;-67
2022/05/21 08:14:14;;;;;;;1.73;0.80;;;23.60;63.40;;;;;;5007076;28;20186;-67
2022/05/21 08:16:40;;;;;;;1.50;0.60;;;23.60;64.30;;;;;;5006620;28;20197;-67
2022/05/21 08:19:05;;;;;;;1.60;0.60;;;23.80;62.40;;;;;;5007023;28;20237;-67
2022/05/21 08:21:31;;;;;;;2.00;0.60;;;23.60;62.70;;;;;;5006884;28;20183;-67
2022/05/21 08:26:56;;;;;;;1.80;0.60;;;23.90;62.00;;;;;;5004189;28;20204;-68
2022/05/21 08:29:32;;;;;;;1.87;0.80;;;24.10;61.90;;;;;;5006977;28;20244;-66
2022/05/21 08:31:59;;;;;;;4.33;0.50;;;23.90;63.60;;;;;;5002771;28;20189;-66
2022/05/21 08:34:26;;;;;;;1.80;0.60;;;24.80;61.00;;;;;;5007099;28;20187;-65
2022/05/21 08:36:53;;;;;;;1.60;0.60;;;24.70;62.30;;;;;;5006409;28;20202;-65
2022/05/21 08:39:19;;;;;;;4.13;1.00;;;24.60;61.10;;;;;;5007010;28;20750;-65
2022/05/21 08:41:51;;;;;;;1.40;0.50;;;24.80;59.90;;;;;;5007064;28;20526;-65
2022/05/21 08:44:22;;;;;;;2.47;0.80;;;24.60;59.70;;;;;;5007028;28;20182;-65
2022/05/21 08:47:09;;;;;;;2.00;0.60;;;24.00;60.20;;;;;;5006260;28;20204;-65
2022/05/21 08:49:37;;;;;;;1.60;0.60;;;23.70;60.80;;;;;;5006663;28;20589;-65
2022/05/21 08:52:17;;;;;;;3.93;0.60;;;23.70;61.10;;;;;;5006283;28;20193;-65
2022/05/21 08:54:46;;;;;;;1.40;0.60;;;23.70;61.00;;;;;;5001554;28;20178;-66
2022/05/21 08:57:45;;;;;;;1.40;0.50;;;24.20;59.70;;;;;;5006122;28;20206;-65
2022/05/21 09:00:23;;;;;;;19.17;0.70;;;24.70;58.20;;;;;;5006308;28;20218;-65
2022/05/21 09:02:50;;;;;;;1.50;0.53;;;24.70;58.80;;;;;;5006216;28;20189;-66
2022/05/21 09:05:19;;;;;;;1.40;0.50;;;24.40;58.80;;;;;;5006236;28;20206;-65
2022/05/21 09:07:50;;;;;;;2.20;0.85;;;24.20;62.30;;;;;;5006277;28;20590;-66
2022/05/21 09:10:27;;;;;;;5.07;0.63;;;24.30;61.50;;;;;;5006667;28;20273;-66
2022/05/21 09:13:20;;;;;;;1.70;0.70;;;24.70;57.80;;;;;;5006339;28;20189;-66
2022/05/21 09:18:33;;;;;;;1.50;0.60;;;24.20;58.00;;;;;;5004204;28;20208;-66
2022/05/21 09:21:16;;;;;;;1.80;0.57;;;24.00;61.20;;;;;;5006296;28;20281;-66
2022/05/21 09:23:55;;;;;;;1.60;0.60;;;24.20;60.40;;;;;;5005684;28;20537;-66
2022/05/21 09:26:26;;;;;;;1.55;0.60;;;24.20;60.50;;;;;;5005882;28;20305;-66
2022/05/21 09:28:56;;;;;;;1.55;0.60;;;24.50;59.80;;;;;;5006124;28;20412;-65
2022/05/21 09:31:31;;;;;;;1.58;0.55;;;24.60;59.10;;;;;;5006069;28;20209;-66
2022/05/21 09:34:30;;;;;;;2.93;0.73;;;24.40;59.30;;;;;;5006379;28;20240;-66
2022/05/21 09:36:57;;;;;;;1.40;0.50;;;24.40;57.40;;;;;;5006689;28;20678;-66
2022/05/21 09:39:33;;;;;;;1.40;0.50;;;24.10;58.20;;;;;;5009047;28;20666;-66
2022/05/21 09:45:24;;;;;;;1.40;0.50;;;24.10;59.80;;;;;;5009666;28;20669;-66
2022/05/21 09:48:14;;;;;;;10.10;1.10;;;24.20;58.40;;;;;;5009699;28;20467;-67
2022/05/21 09:50:48;;;;;;;1.50;0.60;;;23.90;60.20;;;;;;5009611;28;20186;-66
2022/05/21 09:53:40;;;;;;;2.03;0.80;;;23.70;60.60;;;;;;5008763;28;20277;-66
2022/05/21 09:56:28;;;;;;;1.40;0.50;;;23.90;59.70;;;;;;5008567;28;20241;-66
2022/05/21 09:59:14;;;;;;;1.40;0.50;;;23.70;61.20;;;;;;5009438;28;20597;-66
2022/05/21 10:01:48;;;;;;;7.07;0.90;;;24.00;59.60;;;;;;5008415;28;20182;-66
2022/05/21 10:04:23;;;;;;;1.70;0.50;;;24.40;59.30;;;;;;5009248;28;20204;-64
2022/05/21 10:07:09;;;;;;;6.35;0.90;;;24.10;58.70;;;;;;5009487;28;20221;-66
2022/05/21 10:12:41;;;;;;;1.40;0.50;;;23.80;57.70;;;;;;5005843;28;20196;-66
2022/05/21 10:15:09;;;;;;;1.40;0.60;;;23.40;58.60;;;;;;5009092;28;20456;-66
2022/05/21 10:17:49;;;;;;;1.50;0.60;;;23.20;57.20;;;;;;5007474;28;20520;-66
2022/05/21 10:20:29;;;;;;;1.60;0.57;;;22.70;61.10;;;;;;5009208;28;20848;-66
2022/05/21 10:23:22;;;;;;;1.30;0.50;;;22.80;59.90;;;;;;5005664;28;20414;-66
2022/05/21 10:26:11;;;;;;;1.40;0.50;;;22.80;60.20;;;;;;5006891;28;20434;-66
2022/05/21 10:28:42;;;;;;;1.40;0.50;;;22.90;59.80;;;;;;5001393;28;20445;-66
2022/05/21 10:31:40;;;;;;;4.47;0.90;;;22.90;59.40;;;;;;5008206;28;20422;-66
2022/05/21 10:34:20;;;;;;;1.40;0.50;;;22.70;62.50;;;;;;5008918;28;20923;-66
2022/05/21 10:37:23;;;;;;;2.00;0.67;;;22.90;61.80;;;;;;5003747;28;20808;-66
2022/05/21 10:40:07;;;;;;;2.23;0.70;;;22.90;60.00;;;;;;5007926;28;20469;-66
2022/05/21 10:42:47;;;;;;;1.80;0.50;;;23.00;63.00;;;;;;5023675;28;20487;-66
2022/05/21 10:45:33;;;;;;;1.70;0.60;;;22.90;59.40;;;;;;5007775;28;20425;-66
2022/05/21 10:48:20;;;;;;;1.70;0.60;;;22.80;59.10;;;;;;5007349;28;20428;-65
2022/05/21 10:50:54;;;;;;;2.67;0.63;;;22.90;59.10;;;;;;5008310;28;21013;-66
2022/05/21 10:53:43;;;;;;;1.40;0.50;;;22.90;60.70;;;;;;5007332;28;20471;-65
2022/05/21 10:56:11;;;;;;;1.37;0.50;;;23.00;59.70;;;;;;5013833;28;20426;-66
2022/05/21 10:59:15;;;;;;;9.07;0.87;;;22.90;59.10;;;;;;5007796;28;20898;-65
2022/05/21 11:01:59;;;;;;;2.40;0.70;;;22.80;59.30;;;;;;5007612;28;20425;-66
2022/05/21 11:04:51;;;;;;;2.43;0.83;;;22.60;59.20;;;;;;5003440;28;20425;-65
2022/05/21 11:07:44;;;;;;;3.60;0.60;;;22.70;58.40;;;;;;5007645;28;20424;-65
2022/05/21 11:10:19;;;;;;;1.67;0.73;;;22.40;59.00;;;;;;5005632;28;20539;-66
2022/05/21 11:12:58;;;;;;;2.50;0.67;;;22.30;60.10;;;;;;5007727;28;20459;-66
2022/05/21 11:15:36;;;;;;;1.40;0.60;;;22.40;61.80;;;;;;5007486;28;20457;-65
2022/05/21 11:18:13;;;;;;;3.10;0.80;;;22.50;59.20;;;;;;5004158;28;20433;-65
2022/05/21 11:20:45;;;;;;;9.63;0.80;;;22.70;61.60;;;;;;5003054;28;20471;-66
2022/05/21 11:23:21;;;;;;;2.37;0.70;;;23.00;60.30;;;;;;5007521;28;20869;-65
2022/05/21 11:25:49;;;;;;;2.67;0.80;;;23.20;58.40;;;;;;5007461;28;20429;-65
2022/05/21 11:28:28;;;;;;;2.87;0.70;;;23.10;61.30;;;;;;5007275;28;20429;-65
2022/05/21 11:31:03;;;;;;;1.70;0.50;;;23.10;60.50;;;;;;5003116;28;20426;-65
2022/05/21 11:38:49;;;;;;;1.30;0.50;;;23.00;59.60;;;;;;5007084;28;20583;-65
2022/05/21 11:41:27;;;;;;;1.70;0.57;;;22.80;58.70;;;;;;5007339;28;20502;-65
2022/05/21 11:46:56;;;;;;;6.90;0.80;;;23.10;58.60;;;;;;5004292;28;20944;-65
2022/05/21 11:49:34;;;;;;;2.03;0.80;;;23.20;59.20;;;;;;5006869;28;20426;-65
2022/05/21 11:52:25;;;;;;;1.60;0.67;;;23.40;59.40;;;;;;5003978;28;20983;-65
2022/05/21 11:54:51;;;;;;;2.90;0.90;;;23.10;61.20;;;;;;5003159;28;20813;-65
2022/05/21 11:57:35;;;;;;;1.60;0.73;;;23.40;60.60;;;;;;5006581;28;20436;-65
2022/05/21 12:00:05;;;;;;;11.90;0.80;;;23.70;60.00;;;;;;5006606;28;20324;-65
2022/05/21 12:02:38;;;;;;;1.50;0.50;;;23.90;59.40;;;;;;5006978;28;20815;-66
2022/05/21 12:05:09;;;;;;;2.70;0.70;;;23.90;60.60;;;;;;5010068;28;20870;-66
2022/05/21 12:07:41;;;;;;;3.83;0.70;;;23.80;57.20;;;;;;5006610;28;20432;-66
2022/05/21 12:10:21;;;;;;;1.90;0.60;;;23.90;58.10;;;;;;5006214;28;20540;-65
2022/05/21 12:13:10;;;;;;;1.57;0.53;;;24.10;58.50;;;;;;5007115;28;20425;-65
2022/05/21 12:15:43;;;;;;;1.93;0.67;;;23.90;58.90;;;;;;5006100;28;20524;-65
2022/05/21 12:18:31;;;;;;;1.70;0.63;;;23.70;60.00;;;;;;5006951;28;20432;-65
2022/05/21 12:20:57;;;;;;;1.70;0.60;;;24.00;58.70;;;;;;5005470;28;20437;-65
2022/05/21 12:23:32;;;;;;;3.90;1.00;;;24.00;60.00;;;;;;5006755;28;20438;-65
2022/05/21 12:26:03;;;;;;;2.87;0.70;;;24.20;58.80;;;;;;5006215;28;20186;-66
2022/05/21 12:28:46;;;;;;;1.67;0.50;;;24.00;58.80;;;;;;5006481;28;20428;-65
2022/05/21 12:31:19;;;;;;;5.40;0.77;;;24.00;59.20;;;;;;5006212;28;20445;-65
2022/05/21 12:34:13;;;;;;;2.57;0.90;;;24.00;59.10;;;;;;5006496;28;20964;-65
2022/05/21 12:37:06;;;;;;;2.20;0.70;;;23.90;60.60;;;;;;5006072;28;20433;-65
2022/05/21 12:39:55;;;;;;;1.70;0.70;;;24.10;58.10;;;;;;5006662;28;20992;-65
2022/05/21 12:42:46;;;;;;;2.10;0.87;;;24.20;60.80;;;;;;5002235;28;20418;-65
2022/05/21 12:45:28;;;;;;;1.50;0.60;;;24.50;57.90;;;;;;5004216;28;20418;-65
2022/05/21 12:48:12;;;;;;;1.73;0.73;;;24.10;57.60;;;;;;5004221;28;20814;-65
2022/05/21 12:50:50;;;;;;;2.00;0.60;;;23.60;58.00;;;;;;5006609;28;20413;-66
2022/05/21 12:53:30;;;;;;;26.87;0.90;;;23.60;59.90;;;;;;5005760;28;20431;-65
2022/05/21 12:56:15;;;;;;;4.17;0.73;;;23.60;59.70;;;;;;5006346;28;20443;-65
2022/05/21 12:58:41;;;;;;;7.37;0.73;;;23.70;60.30;;;;;;5000725;28;20417;-65
2022/05/21 13:01:07;;;;;;;1.40;0.50;;;23.80;60.10;;;;;;5005922;28;20933;-66
2022/05/21 13:03:35;;;;;;;2.63;0.83;;;23.90;60.60;;;;;;5006211;28;20183;-65
2022/05/21 13:06:07;;;;;;;4.40;0.90;;;24.20;59.20;;;;;;5003158;28;20791;-66
2022/05/21 13:08:36;;;;;;;2.03;0.60;;;24.30;59.70;;;;;;5006407;28;20417;-65
2022/05/21 13:11:14;;;;;;;3.70;0.60;;;24.50;59.80;;;;;;5009079;28;20436;-66
2022/05/21 13:13:42;;;;;;;1.80;0.80;;;24.30;58.00;;;;;;5009856;28;20413;-66
2022/05/21 13:16:14;;;;;;;1.83;0.60;;;24.50;57.30;;;;;;5009319;28;20421;-65
2022/05/21 13:19:05;;;;;;;1.77;0.70;;;24.10;57.40;;;;;;5009541;28;20426;-65
2022/05/21 13:21:31;;;;;;;1.90;0.70;;;24.00;59.30;;;;;;5004923;28;20523;-66
2022/05/21 13:24:53;;;;;;;3.60;0.50;;;24.10;58.10;;;;;;5010313;28;20479;-65
2022/05/21 13:27:21;;;;;;;1.90;0.73;;;24.40;56.60;;;;;;4965864;28;20198;-65
2022/05/21 13:29:49;;;;;;;1.90;0.67;;;24.40;58.00;;;;;;4964143;28;20534;-65
2022/05/21 13:32:19;;;;;;;3.10;0.70;;;24.40;57.80;;;;;;4993060;28;20818;-65
2022/05/21 13:34:45;;;;;;;2.00;0.70;;;24.40;59.80;;;;;;5009407;28;21056;-65
2022/05/21 13:37:12;;;;;;;2.27;0.57;;;24.60;58.30;;;;;;5009824;28;20516;-65
2022/05/21 13:39:38;;;;;;;2.90;0.60;;;24.60;54.10;;;;;;5009173;28;20635;-66